createdAt,value
2023-04-03T08:16:24.647Z,8.85
2023-04-03T08:18:27.788Z,8.85
2023-04-03T08:20:30.202Z,8.45
2023-04-03T08:22:32.649Z,8.72
2023-04-03T08:24:36.363Z,8.83
2023-04-03T08:26:38.848Z,9.09
2023-04-03T08:28:41.587Z,9.27
2023-04-03T08:30:44.797Z,9.33
2023-04-03T08:32:47.275Z,9.17
2023-04-03T08:34:49.700Z,9.32
2023-04-03T08:36:52.398Z,9.34
2023-04-03T08:38:56.222Z,9.76
2023-04-03T08:41:12.625Z,9.90
2023-04-03T08:43:37.800Z,9.56
2023-04-03T08:45:58.620Z,9.61
2023-04-03T08:48:12.018Z,9.77
2023-04-03T08:50:25.225Z,9.32
2023-04-03T08:52:39.428Z,9.74
2023-04-03T08:54:56.693Z,9.98
2023-04-03T08:57:03.499Z,10.45
2023-04-03T08:59:13.326Z,10.85
2023-04-03T09:01:22.368Z,10.43
2023-04-03T09:03:25.948Z,10.26
2023-04-03T09:05:33.649Z,9.63
2023-04-03T09:07:43.795Z,9.94
2023-04-03T09:09:49.681Z,10.38
2023-04-03T09:12:10.345Z,10.35
2023-04-03T09:14:33.000Z,10.04
2023-04-03T09:16:50.746Z,9.72
2023-04-03T09:19:03.271Z,9.92
2023-04-03T09:21:14.721Z,9.71
2023-04-03T09:23:28.042Z,9.86
2023-04-03T09:25:37.159Z,10.23
2023-04-03T09:27:39.580Z,9.91
2023-04-03T09:29:44.589Z,10.18
2023-04-03T09:31:50.738Z,9.78
2023-04-03T09:34:01.680Z,10.25
2023-04-03T09:36:04.522Z,10.03
2023-04-03T09:38:12.855Z,9.65
2023-04-03T09:40:27.313Z,9.54
2023-04-03T09:42:32.127Z,10.43
2023-04-03T09:44:37.974Z,10.76
2023-04-03T09:46:40.814Z,10.76
2023-04-03T09:49:05.187Z,11.14
2023-04-03T09:51:16.282Z,11.33
2023-04-03T09:53:40.031Z,11.41
2023-04-03T09:55:45.025Z,11.11
2023-04-03T09:57:47.872Z,11.47
2023-04-03T10:00:01.212Z,11.69
2023-04-03T10:02:07.904Z,11.57
2023-04-03T10:04:12.278Z,12.30
2023-04-03T10:06:25.410Z,12.42
2023-04-03T10:08:31.885Z,12.81
2023-04-03T10:10:34.793Z,11.82
2023-04-03T10:12:37.125Z,11.80
2023-04-03T10:15:00.604Z,11.43
2023-04-03T10:17:24.407Z,11.24
2023-04-03T10:19:27.207Z,10.62
2023-04-03T10:21:54.379Z,10.16
2023-04-03T10:24:20.567Z,10.53
2023-04-03T10:26:38.567Z,10.65
2023-04-03T10:29:10.729Z,10.82
2023-04-03T10:31:16.583Z,10.52
2023-04-03T10:33:23.063Z,10.51
2023-04-03T10:35:47.319Z,10.47
2023-04-03T10:38:31.612Z,10.27
2023-04-03T10:40:34.094Z,10.51
2023-04-03T10:42:48.436Z,10.47
2023-04-03T10:45:02.752Z,10.50
2023-04-03T10:47:08.029Z,10.49
2023-04-03T10:49:35.111Z,10.86
2023-04-03T10:51:46.017Z,10.37
2023-04-03T10:53:58.282Z,10.31
2023-04-03T10:56:21.132Z,10.38
2023-04-03T10:58:46.433Z,10.28
2023-04-03T11:00:51.709Z,10.26
2023-04-03T11:03:01.925Z,10.40
2023-04-03T11:05:15.135Z,10.38
2023-04-03T11:07:27.878Z,10.51
2023-04-03T11:09:39.325Z,10.57
2023-04-03T11:11:44.074Z,10.86
2023-04-03T11:13:58.877Z,10.94
2023-04-03T11:16:01.810Z,11.22
2023-04-03T11:18:12.544Z,11.50
2023-04-03T11:20:35.075Z,11.73
2023-04-03T11:22:43.780Z,11.87
2023-04-03T11:24:57.807Z,11.99
2023-04-03T11:27:04.996Z,11.65
2023-04-03T11:29:17.877Z,11.90
2023-04-03T11:31:39.092Z,12.02
2023-04-03T11:34:16.775Z,11.82
2023-04-03T11:36:25.619Z,11.51
2023-04-03T11:38:40.494Z,11.61
2023-04-03T11:40:45.354Z,11.16
2023-04-03T11:42:51.014Z,11.59
2023-04-03T11:45:35.667Z,10.74
2023-04-03T11:47:55.361Z,10.95
2023-04-03T11:50:00.231Z,11.45
2023-04-03T11:52:02.939Z,11.46
2023-04-03T11:54:46.842Z,11.40
2023-04-03T11:56:49.523Z,11.33
2023-04-03T11:59:12.688Z,11.25
2023-04-03T12:01:43.712Z,11.16
2023-04-03T12:03:46.800Z,10.82
2023-04-03T12:05:49.541Z,10.78
2023-04-03T12:08:17.434Z,10.59
2023-04-03T12:10:31.028Z,10.29
2023-04-03T12:12:39.033Z,10.15
2023-04-03T12:14:41.646Z,10.46
2023-04-03T12:16:48.504Z,10.53
2023-04-03T12:18:51.324Z,10.09
2023-04-03T12:20:54.694Z,9.80
2023-04-03T12:23:25.466Z,9.91
2023-04-03T12:25:51.461Z,10.01
2023-04-03T12:27:54.420Z,10.06
2023-04-03T12:30:30.604Z,10.36
2023-04-03T12:33:09.668Z,10.36
2023-04-03T12:35:37.974Z,10.70
2023-04-03T12:38:00.809Z,11.00
2023-04-03T12:40:09.585Z,11.35
2023-04-03T12:42:44.248Z,11.24
2023-04-03T12:44:59.448Z,10.73
2023-04-03T12:47:03.186Z,11.19
2023-04-03T12:49:22.203Z,11.46
2023-04-03T12:51:45.581Z,11.72
2023-04-03T12:53:50.315Z,11.97
2023-04-03T12:55:57.817Z,11.81
2023-04-03T12:58:27.737Z,11.75
2023-04-03T13:00:36.664Z,11.56
2023-04-03T13:02:39.423Z,11.97
2023-04-03T13:04:41.800Z,11.74
2023-04-03T13:06:45.562Z,11.38
2023-04-03T13:08:58.160Z,11.08
2023-04-03T13:11:07.046Z,10.90
2023-04-03T13:13:10.922Z,11.19
2023-04-03T13:15:20.756Z,11.38
2023-04-03T13:17:23.715Z,11.00
2023-04-03T13:19:29.654Z,11.15
2023-04-03T13:21:35.773Z,11.84
2023-04-03T13:23:41.644Z,11.93
2023-04-03T13:25:46.536Z,11.58
2023-04-03T13:27:52.219Z,11.72
2023-04-03T13:29:59.067Z,12.00
2023-04-03T13:32:03.317Z,12.42
2023-04-03T13:34:14.432Z,12.22
2023-04-03T13:36:29.221Z,12.50
2023-04-03T13:38:34.821Z,12.73
2023-04-03T13:40:55.744Z,12.48
2023-04-03T13:43:31.345Z,12.45
2023-04-03T13:45:35.802Z,12.89
2023-04-03T13:47:41.368Z,13.02
2023-04-03T13:50:01.171Z,12.96
2023-04-03T13:52:42.137Z,12.63
2023-04-03T13:54:47.209Z,12.64
2023-04-03T13:56:56.268Z,12.23
2023-04-03T13:59:28.165Z,12.70
2023-04-03T14:01:40.898Z,12.99
2023-04-03T14:03:43.629Z,13.23
2023-04-03T14:05:46.682Z,13.10
2023-04-03T14:07:49.115Z,13.27
2023-04-03T14:09:52.169Z,13.02
2023-04-03T14:12:01.479Z,13.79
2023-04-03T14:14:13.970Z,14.41
2023-04-03T14:16:20.626Z,12.45
2023-04-03T14:18:23.090Z,12.95
2023-04-03T14:20:27.707Z,13.22
2023-04-03T14:22:34.632Z,13.01
2023-04-03T14:24:37.058Z,12.84
2023-04-03T14:26:39.668Z,12.80
2023-04-03T14:28:44.126Z,12.61
2023-04-03T14:30:50.091Z,12.90
2023-04-03T14:32:52.669Z,12.70
2023-04-03T14:34:56.352Z,12.96
2023-04-03T14:36:58.828Z,12.41
2023-04-03T14:39:01.808Z,11.13
2023-04-03T14:41:15.522Z,11.47
2023-04-03T14:43:21.084Z,11.72
2023-04-03T14:45:24.448Z,11.16
2023-04-03T14:47:32.199Z,11.43
2023-04-03T14:49:35.626Z,11.50
2023-04-03T14:51:39.048Z,11.48
2023-04-03T14:53:42.996Z,10.93
2023-04-03T14:55:47.593Z,10.75
2023-04-03T14:57:50.098Z,10.88
2023-04-03T14:59:53.448Z,11.04
2023-04-03T15:01:55.890Z,11.03
2023-04-03T15:03:58.495Z,10.75
2023-04-03T15:06:01.832Z,11.02
2023-04-03T15:08:04.571Z,11.00
2023-04-03T15:10:34.040Z,10.58
2023-04-03T15:12:36.728Z,10.73
2023-04-03T15:16:45.137Z,10.65
2023-04-03T15:18:48.609Z,10.39
2023-04-03T15:20:51.157Z,10.13
2023-04-03T15:22:54.273Z,9.94
2023-04-03T15:24:56.928Z,9.86
2023-04-03T15:27:01.035Z,10.11
2023-04-03T15:29:05.019Z,10.23
2023-04-03T15:31:08.582Z,10.18
2023-04-03T15:33:10.976Z,10.43
2023-04-03T15:35:13.344Z,10.40
2023-04-03T15:37:16.180Z,10.41
2023-04-03T15:39:18.509Z,10.00
2023-04-03T15:41:21.027Z,9.77
2023-04-03T15:43:24.158Z,9.66
2023-04-03T15:45:29.313Z,9.47
2023-04-03T15:47:31.835Z,9.47
2023-04-03T15:49:35.447Z,9.39
2023-04-03T15:51:38.029Z,9.40
2023-04-03T15:53:40.442Z,9.34
2023-04-03T15:55:43.413Z,9.31
2023-04-03T15:57:45.949Z,9.22
2023-04-03T15:59:48.289Z,9.15
2023-04-03T16:01:52.397Z,9.03
2023-04-03T16:03:55.317Z,8.93
2023-04-03T16:05:57.792Z,8.94
2023-04-03T16:08:01.473Z,8.98
2023-04-03T16:10:04.924Z,9.01
2023-04-03T16:12:07.295Z,8.99
2023-04-03T16:14:10.239Z,9.11
2023-04-03T16:16:13.009Z,8.98
2023-04-03T16:18:15.839Z,9.02
2023-04-03T16:20:19.687Z,8.85
2023-04-03T16:22:24.881Z,8.74
2023-04-03T16:24:27.227Z,8.97
2023-04-03T16:26:29.889Z,9.13
2023-04-03T16:28:32.962Z,8.91
2023-04-03T16:30:35.606Z,9.08
2023-04-03T16:32:39.927Z,8.96
2023-04-03T16:34:42.897Z,8.93
2023-04-03T16:36:45.496Z,8.87
2023-04-03T16:38:47.988Z,8.79
2023-04-03T16:40:50.794Z,8.67
2023-04-03T16:42:53.297Z,8.58
2023-04-03T16:44:55.740Z,8.56
2023-04-03T16:47:00.169Z,8.52
2023-04-03T16:49:03.017Z,8.53
2023-04-03T16:51:05.674Z,8.43
2023-04-03T16:53:10.645Z,8.10
2023-04-03T16:55:13.382Z,8.04
2023-04-03T16:57:15.854Z,7.85
2023-04-03T16:59:18.854Z,8.11
2023-04-03T17:01:23.043Z,7.98
2023-04-03T17:03:27.167Z,7.99
2023-04-03T17:05:30.620Z,8.04
2023-04-03T17:07:33.275Z,7.88
2023-04-03T17:09:36.044Z,7.88
2023-04-03T17:11:39.776Z,7.52
2023-04-03T17:13:42.411Z,7.40
2023-04-03T17:15:44.801Z,7.26
2023-04-03T17:17:52.626Z,7.25
2023-04-03T17:19:56.604Z,7.56
2023-04-03T17:21:59.900Z,7.35
2023-04-03T17:24:09.688Z,7.21
2023-04-03T17:26:12.605Z,7.32
2023-04-03T17:28:15.151Z,7.49
2023-04-03T17:30:19.083Z,7.60
2023-04-03T17:32:22.719Z,7.47
2023-04-03T17:34:27.162Z,7.36
2023-04-03T17:36:32.102Z,7.35
2023-04-03T17:38:35.105Z,7.12
2023-04-03T17:40:37.741Z,7.12
2023-04-03T17:42:41.156Z,7.04
2023-04-03T17:44:44.758Z,7.17
2023-04-03T17:46:47.631Z,7.10
2023-04-03T17:48:51.206Z,6.96
2023-04-03T17:50:53.532Z,7.09
2023-04-03T17:52:56.540Z,7.13
2023-04-03T17:55:01.675Z,7.07
2023-04-03T17:57:05.785Z,6.93
2023-04-03T17:59:08.956Z,6.82
2023-04-03T18:01:22.650Z,6.78
2023-04-03T18:03:26.606Z,6.89
2023-04-03T18:05:30.505Z,6.82
2023-04-03T18:07:33.511Z,6.62
2023-04-03T18:09:37.614Z,6.52
2023-04-03T18:11:41.186Z,6.55
2023-04-03T18:13:46.380Z,6.38
2023-04-03T18:15:51.556Z,6.46
2023-04-03T18:17:56.921Z,6.70
2023-04-03T18:19:59.702Z,6.42
2023-04-03T18:22:08.794Z,6.70
2023-04-03T18:24:14.217Z,6.56
2023-04-03T18:26:19.827Z,6.63
2023-04-03T18:28:24.513Z,6.40
2023-04-03T18:30:27.849Z,6.15
2023-04-03T18:32:30.567Z,6.03
2023-04-03T18:34:36.093Z,5.99
2023-04-03T18:36:41.188Z,5.90
2023-04-03T18:38:44.662Z,5.93
2023-04-03T18:40:49.834Z,6.09
2023-04-03T18:42:53.614Z,5.97
2023-04-03T18:45:00.320Z,6.18
2023-04-03T18:47:04.274Z,6.07
2023-04-03T18:49:09.945Z,5.76
2023-04-03T18:51:14.760Z,5.78
2023-04-03T18:53:22.026Z,5.93
2023-04-03T18:55:25.361Z,5.84
2023-04-03T18:57:29.008Z,5.73
2023-04-03T18:59:41.558Z,5.42
2023-04-03T19:01:46.393Z,5.43
2023-04-03T19:03:50.181Z,5.36
2023-04-03T19:05:54.661Z,5.38
2023-04-03T19:07:58.601Z,5.44
2023-04-03T19:10:02.073Z,5.42
2023-04-03T19:12:07.316Z,5.36
2023-04-03T19:14:16.724Z,5.48
2023-04-03T19:16:21.514Z,5.37
2023-04-03T19:18:26.754Z,5.31
2023-04-03T19:20:31.012Z,5.16
2023-04-03T19:22:34.778Z,5.29
2023-04-03T19:24:38.968Z,5.31
2023-04-03T19:26:43.316Z,5.05
2023-04-03T19:28:51.128Z,5.15
2023-04-03T19:30:55.823Z,5.21
2023-04-03T19:33:01.186Z,5.14
2023-04-03T19:35:06.386Z,5.25
2023-04-03T19:37:14.783Z,5.08
2023-04-03T19:39:19.766Z,4.97
2023-04-03T19:41:25.937Z,5.18
2023-04-03T19:43:30.347Z,4.99
2023-04-03T19:45:34.600Z,4.85
2023-04-03T19:47:38.557Z,4.74
2023-04-03T19:49:43.432Z,4.72
2023-04-03T19:51:47.621Z,4.69
2023-04-03T19:53:52.643Z,4.56
2023-04-03T19:55:58.404Z,4.59
2023-04-03T19:58:02.902Z,4.62
2023-04-03T20:00:07.068Z,4.44
2023-04-03T20:02:14.504Z,4.32
2023-04-03T20:04:18.140Z,4.31
2023-04-03T20:06:22.154Z,4.14
2023-04-03T20:08:28.808Z,4.29
2023-04-03T20:10:33.686Z,4.20
2023-04-03T20:12:37.858Z,4.06
2023-04-03T20:14:41.253Z,3.98
2023-04-03T20:16:45.584Z,3.93
2023-04-03T20:18:52.283Z,4.12
2023-04-03T20:21:02.082Z,4.18
2023-04-03T20:23:05.620Z,4.03
2023-04-03T20:25:15.311Z,4.03
2023-04-03T20:27:20.738Z,3.97
2023-04-03T20:29:27.466Z,4.04
2023-04-03T20:31:31.124Z,4.15
2023-04-03T20:33:34.089Z,4.10
2023-04-03T20:35:36.821Z,4.05
2023-04-03T20:37:42.419Z,3.94
2023-04-03T20:39:45.174Z,3.58
2023-04-03T20:41:47.838Z,3.65
2023-04-03T20:43:50.797Z,3.59
2023-04-03T20:45:53.315Z,3.68
2023-04-03T20:47:59.208Z,3.75
2023-04-03T20:50:01.589Z,3.62
2023-04-03T20:52:04.580Z,3.64
2023-04-03T20:54:07.658Z,3.49
2023-04-03T20:56:10.189Z,3.71
2023-04-03T20:58:12.736Z,3.61
2023-04-03T21:00:19.173Z,3.61
2023-04-03T21:02:21.659Z,3.64
2023-04-03T21:04:39.497Z,3.66
2023-04-03T21:07:19.705Z,3.64
2023-04-03T21:09:59.494Z,3.74
2023-04-03T21:12:40.122Z,3.70
2023-04-03T21:15:21.545Z,3.67
2023-04-03T21:17:24.150Z,3.45
2023-04-03T21:19:26.557Z,3.61
2023-04-03T21:21:29.492Z,3.66
2023-04-03T21:23:33.192Z,3.63
2023-04-03T21:25:35.734Z,3.66
2023-04-03T21:27:38.683Z,3.65
2023-04-03T21:29:41.639Z,3.51
2023-04-03T21:31:53.285Z,3.57
2023-04-03T21:33:55.577Z,3.38
2023-04-03T21:35:59.906Z,3.49
2023-04-03T21:38:02.276Z,3.56
2023-04-03T21:40:06.000Z,3.68
2023-04-03T21:42:08.608Z,3.64
2023-04-03T21:44:11.151Z,3.61
2023-04-03T21:46:13.775Z,3.62
2023-04-03T21:48:18.115Z,3.47
2023-04-03T21:50:20.513Z,3.51
2023-04-03T21:52:23.000Z,3.62
2023-04-03T21:54:25.672Z,3.44
2023-04-03T21:56:28.034Z,3.44
2023-04-03T21:58:32.196Z,3.43
2023-04-03T22:00:35.128Z,3.36
2023-04-03T22:02:41.102Z,3.44
2023-04-03T22:04:43.757Z,3.46
2023-04-03T22:06:46.416Z,3.55
2023-04-03T22:08:49.036Z,3.51
2023-04-03T22:10:51.407Z,3.42
2023-04-03T22:12:53.718Z,3.35
2023-04-03T22:14:56.640Z,3.45
2023-04-03T22:16:59.663Z,3.38
2023-04-03T22:19:02.927Z,3.36
2023-04-03T22:21:09.340Z,3.46
2023-04-03T22:23:11.830Z,3.36
2023-04-03T22:25:14.252Z,3.33
